Ithaca, NY

1:35 AM EST on March 06, 2015 (GMT -0500)
Muzzy Rd, Danby NY | Change Station
CLOSE
Current Station
Personal Weather Station
Location: Ithaca, NY
Elevation: 1427 ft
Nearby Weather Stations

Elev 1427 ft 42.38 °N, 76.48 °W | Updated 29 seconds ago

Mostly Cloudy
Mostly Cloudy
3.3 °F
Feels Like 3 °F
N
0.0
Wind Variable Wind from North
Gusts 3.0 mph

Today
High -- | Low -- °F
--% Chance of Precip.
Yesterday
High -- | Low -- °F
Precip. -- in
6:33 AM 6:01 PM
Full, 100% visible
Pressure 30.50 in
Visibility 10.0 miles
Clouds Overcast 2800 ft
Windchill 3 °F
Dew Point -2 °F
Humidity 80%
Rainfall in
Snow Depth Not available.
UV 0 out of 12
Pollen .40 out of 12
Air Quality Not available.
Flu Activity Not available.
METAR KITH 060556Z AUTO 00000KT 10SM OVC028 M18/M21 A3041 RMK AO2 51008 60000 T11831205 11122 21183 SLP327

More Conditions Fewer Conditions

Pressure 30.50 in
Visibility 10.0 miles
Clouds Overcast 2800 ft
Windchill 3 °F
Dew Point -2 °F
Humidity 80%
Rainfall in
Snow Depth Not available.
UV 0 out of 12
Pollen .40 out of 12
Air Quality Not available.
Flu Activity Not available.
METAR KITH 060556Z AUTO 00000KT 10SM OVC028 M18/M21 A3041 RMK AO2 51008 60000 T11831205 11122 21183 SLP327

More Conditions Fewer Conditions

10-Day Weather Forecast

Almanac

Astronomy

Mar. 06, 2015 Rise Set
Actual Time
Civil Twilight
Nautical Twilight
Astronomical Twilight
Moon
Length of Visible Light
Length of Day
Tomorrow will be .
, % of the Moon is Illuminated

Today's Extremes

State Highs State Lows

Community

WunderPhotos

Upload Photos

1,803,195 photos uploaded!

WunderBlogs® & News

Nearby

Air Quality

  Air Quality AQ Index Pollutant
Not available.

Snow Depth

Station Depth Elevation

Earthquake Activity

City Distance Mag. Time & Date
Minimum magnitude displayed is 2.5.

Coastal Water Temperatures

Place Temperature

Nearby Weather Stations